Aérodrome :
LOGIN :

S'inscrire | Disclaimer

   EN    FR    IT 

 










Légende :    VFR   VFR Marginal   IFR   IFR Intensif   IFR Très Intensif
Visi : 
Plafond : 
>= 8 km
>= 3000ft
5 à 8 km
1000 à 3000 ft
1500m à 5 km
500 à 1000 ft
800 à 1500m
200 à 500 ft
< 800m
< 200 ft
Symboles :   Orages  Brouillard  Fortes neiges  Fortes précipitations  Vent > 20 kt
SIGMETs :   Divers  Orages  Givrage  Turbulence  Onde Orograph.  Cendres Volcan.






- Altitude de l'aérodrome : 1682 ft
- Code IATA : VIT


LEVT - Vitoria Gasteiz

DERNIER METAR :
  • 232100Z 31006KT 270V350 9999 SCT018 BKN040 13/10 Q1024

METARs EXPIRÉS :
  • 232030Z 30004KT 260V340 9999 SCT018 BKN040 13/10 Q1024
  • 232000Z 29004KT 220V360 9999 SCT018 SCT038 BKN049 13/11 Q1024
  • 231930Z 30003KT 9999 SCT022 SCT038 BKN049 13/11 Q1023
  • 231900Z 31004KT 270V010 9999 FEW016 SCT038 BKN049 13/11 Q1023
  • 231830Z 35004KT 310V030 9999 -DZ FEW017 BKN032 BKN070 13/11 Q1023

TAF TAF LEVT
Valide du 23 à 18h jusqu'au 24 à 18h UTC


231700Z 2318/2418 32009KT 9999 OVC026 TX19/2415Z TN11/2400Z
TEMPO 2318/2408 3000 -RA BR BKN010
PROB40
TEMPO 2318/2324 32015G25KT
TEMPO 2318/2322 3000 RA SCT030TCU
PROB30
TEMPO 2318/2320 VRB12G22KT 1500 +SHRA TS BKN020CB
TEMPO 2320/2408 BKN005



MET'MAP, la Météo Aéronautique d'un coup d'oeil ! - Copyright ORBIFLY Décembre 2007 - Disclaimer

ORBIFLY MET'MAP TEAM :

Programmation & Développement : Alexandra Zaïnal
Sur une idée originale de : Baudouin d'Aumeries
Assistance à la programmation : Marc-Olivier Méhu
Soutien technique & logistique : Manuel Goepfert

Contact : metmap@orbifly.com




SOURCES & CREDITS :

   NOAA